hwlogo.jpg (8581 bytes)
Home Your Weather Products Services Weather On Your Site Contact
HW Version Logo
Weather Info
Your Weather (Options)
Canadian Weather
International Weather
Enter your " Place, State", US Zip Code or ICAO:  
Forecast Information Radar Information
Saint Catharines, Ontario, Canada  Lat: 43.18N, Lon: 79.15W
ICAO Used: CYSN
Current Conditions
Updated: 9:00 PM EST SUN FEB 18 2018
Sun & Moon Information
Partly Cloudy
Partly Cloudy
Temp: -2°C
Humidity: 79%
Wind Speed: SE 6 MPH
Barometer: 1026 mb
Dewpoint: -5°C
Heat Index: -2°C
Wind Chill: -6°C
Civil Twilight: 6:41 AM EST Moon Phase:
Waxing Crescent Moon
Sunrise: 7:10 AM EST
Sunset: 5:49 PM EST
Civil Twilight: 6:18 PM EST
Forecast for Saint Catharines, ON:
(Forecast based on TAF for )
0300 PM EST SUN FEB 18 2018
  
AFTERNOON EVENING OVERNIGHT
Mostly
Cloudy
Mostly
Cloudy
Partly
Cloudy
ZoneCast:
Dated: 0300 PM EST SUN FEB 18 2018
Afternoon...Mostly cloudy with winds from the southsoutheast at 8 mph.

Evening...Mostly cloudy with winds from the southsoutheast at 8 mph.

Overnight...Mostly cloudy with winds from the southsoutheast at 8 mph. Turning partly cloudy with winds from the southwest at 8 mph.

Original Encoded TAF:
Dated: 0300 PM EST SUN FEB 18 2018
2018/02/18 20:00
TAF CYSN 181938Z 1820/1902 20007KT P6SM BKN030 
      TEMPO 1820/1824 SCT030 
     FM190000 21007KT P6SM FEW140 
      RMK NXT FCST WILL BE ISSUED AT 191345Z